EDXW/GWT METAR and TAF weather

Enter ICAO airport designator
Station Type Date Time Source
EDXW METAR 2019/04/19 18:20 UTC NOAA

EDXW 191820Z 09011KT CAVOK 13/06 Q1034


Station Type Date Time Source
EDXW Decoded METAR 2019/04/19 18:20 UTC NOAA

Westerland / Sylt, Germany (EDXW) 54-55N 008-21E 20M
Apr 19, 2019 - 02:20 PM EDT / 2019.04.19 1820 UTC
Wind: from the E (090 degrees) at 13 MPH (11 KT):0
Visibility: greater than 7 mile(s):0
Temperature: 55 F (13 C)
Dew Point: 42 F (6 C)
Relative Humidity: 62%
Pressure (altimeter): 30.53 in. Hg (1034 hPa)
ob: EDXW 191820Z 09011KT CAVOK 13/06 Q1034
cycle: 18

Station Type Date Time Source
EDXW TAF 2009/07/07 14:00 UTC NOAA

TAF EDXW 071400Z 0715/0719 22015G25KT 9999 SCT020

Example: see airport list